Database: COMPET-N - COOP - 3PL - 4PL - CNDOOM

WAD: Doom | Doom 2 | TNT | Plutonia | AV | HR | Scythe | MM | MM2 | Requiem | CE
Category: speed | nmare | max | nm100s | tyson | pacifist | fast | respawn | nomo | misc | built | all
Highscore: ALL | IWAD | PWAD | Country | Continent

< Previous map       Next map >
Remove: wad | map | category | player | allMAP17
MapPlayerTimeDateFilenameCommentsDL
MAP17: TenementsAdam Williamson1:59.002003-03-05lv17-159.zip - 240
MAP17: TenementsAdam Williamson2:01.002003-03-05lv17-201.zip - 130
MAP17: TenementsChris Felix2:07.002003-03-02lv17-207.zip - 181
MAP17: TenementsAnders Johnsen2:09.001998-06-11lv17-209.zip - 81
MAP17: TenementsAnders Johnsen2:11.001998-06-11lv17-211.zip - 85
MAP17: TenementsThomas Pilger2:13.001998-06-09lv17-213.zip - 99
MAP17: TenementsAnders Johnsen2:16.001998-06-08lv17-216.zip - 98
MAP17: TenementsThomas Pilger2:17.001998-04-10lv17-217.zip - 72
MAP17: TenementsThomas Pilger2:30.001998-01-23lv17-230.zip - 62
MAP17: TenementsThomas Pilger2:42.001998-01-18lv17-242.zip - 86
MAP17: TenementsDaniel Lindgren2:45.001996-06-30lv17-245.zip - 78
MAP17: TenementsAndreas Kren2:46.001996-06-26lv17-246.zip - 61
MAP17: TenementsDaniel Lindgren2:50.001996-06-07lv17-250.zip - 80
MAP17: TenementsWade Cayton3:17.001996-05-27lv17-317.zip - 48
MAP17: TenementsWade Cayton3:20.001996-05-27lv17-320.zip - 50
MAP17: TenementsMichael Kren3:26.001996-04-09lv17-326.zip - 55
MAP17: TenementsDaniel Lindgren4:25.001996-02-07lv17-425.zip - 72
MAP17: TenementsHenning Skogsto2:16.002000-03-20nm17-216.zip - 149
MAP17: TenementsVincent Catalaa2:19.002000-03-19nm17-219.zip - 91
MAP17: TenementsHenning Skogsto2:22.002000-03-17nm17-222.zip - 84
MAP17: TenementsVincent Catalaa2:26.002000-03-15nm17-226.zip - 72
MAP17: TenementsHenning Skogsto2:29.002000-03-15nm17-229.zip - 96
MAP17: TenementsVincent Catalaa2:30.002000-02-13nm17-230.zip - 125
MAP17: TenementsHenning Skogsto2:44.001999-12-24nm17-244.zip - 88
MAP17: TenementsThomas Pilger2:50.001998-08-14nm17-250.zip - 88
MAP17: TenementsThomas Pilger3:15.001998-07-16nm17-315.zip - 88
MAP17: TenementsIstvan Pataki3:25.001997-08-08nm17-325.zip - 74
MAP17: TenementsAndreas Kren3:33.001997-08-05nm17-333.zip - 53
MAP17: TenementsIstvan Pataki4:18.001997-08-04nm17-418.zip - 59
MAP17: TenementsPeo Sjoblom5:01.001997-08-02nm17-501.zip - 72
MAP17: TenementsIstvan Pataki5:32.001997-07-05nm17-532.zip - 82
MAP17: TenementsAndreas Kren6:28.001996-05-20nm17-628.zip - 57
MAP17: TenementsRadek Pecka4:15.002004-02-18lv17-415.zip - 201
MAP17: TenementsDrew DeVore4:21.002003-03-31lv17-421.zip - 85
MAP17: TenementsRadek Pecka4:34.002002-03-26lv17-434.zip - 110
MAP17: TenementsAnders Johnsen4:47.001998-08-06lv17-447.zip - 80
MAP17: TenementsDaniel Lindgren5:11.001997-06-24lv17-511.zip - 83
MAP17: TenementsDaniel Lindgren6:37.001996-06-27lv17-637.zip - 87
MAP17: TenementsWade Cayton6:56.001996-06-06lv17-656.zip - 66
MAP17: TenementsDaniel Lindgren7:52.001996-04-03lv17-752.zip - 67
MAP17: TenementsDaniel Lindgren8:25.001996-03-22lv17-825.zip - 75
MAP17: TenementsWade Cayton8:37.001996-02-14lv17-837.zip - 63
MAP17: TenementsDaniel Lindgren9:05.001995-11-26lv17-905.zip - 98
MAP17: TenementsHenning Skogsto3:25.002000-03-23ns17-325.zip - 219
MAP17: TenementsVincent Catalaa3:49.001999-12-06ns17-349.zip - 73
MAP17: TenementsThomas Pilger5:52.001999-06-23ns17-552.zip - 86
MAP17: TenementsThomas Pilger5:53.001998-12-01ns17-553.zip - 75
MAP17: TenementsJim Leonard13:30.002002-01-26ty171330.zip - 201
MAP17: TenementsPeo Sjoblom13:44.001998-06-20ty171344.zip - 64
MAP17: TenementsDaniel Lindgren16:31.001997-07-02ty171631.zip - 98
MAP17: TenementsLooper 41:33.002011-01-06pa174133.zip - 281
MAP17: TenementsOle Hartvigsen5:38.002000-08-11fa17-538.zip - 182
MAP17: TenementsAdam Williamson5:39.002000-05-23fa17-539.zip - 105
MAP17: TenementsAdam Williamson5:58.002000-05-23fa17-558.zip - 85
MAP17: TenementsOle Hartvigsen6:14.002000-05-19fa17-614.zip - 96
MAP17: TenementsPeo Sjoblom6:19.001997-12-12fa17-619.zip - 57
MAP17: TenementsIstvan Pataki6:55.001997-08-24fa17-655.zip - 82
MAP17: TenementsPeo Sjoblom7:38.001997-07-31fa17-738.zip - 67
MAP17: TenementsIstvan Pataki8:11.001997-01-23fa17-811.zip - 83
MAP17: TenementsPeo Sjoblom15:52.001996-08-06f17-1552.zip - 61
MAP17: TenementsHenning Skogsto4:08.002000-04-03re17-408.zip - 216
MAP17: TenementsZvonimir Bužanić4:16.001999-09-25re17-416.zip - 121
MAP17: TenementsAnders Johnsen4:26.001998-09-19re17-426.zip - 84
MAP17: TenementsSteffen Udluft5:47.001998-07-12re17-547.zip - 66
MAP17: TenementsThomas Kroppen8:28.001997-09-27re17-828.zip - 48
MAP17: TenementsLooper 1:25.942011-12-02d1712594.zip - 211
MAP17: TenementsAdam Hegyi1:32.251999-07-05d1713225.zip - 90
MAP17: TenementsArno Slagboom1:52.312000-05-04d1715231.zip - 71
Remove: wad | map | category | player | all